Главная страница
METAR-TAF:

METAR-TAF

Аэропорты :

Порт-оф-Спейн, Тринидад, Тринидад и Тобаго

широта: 10-37N, долгота: 061-21W, высота над уровнем моря: 12 м

Текущие метеонаблюдения

Эта сводка был подготовлена 50 минут назад, в 05:00 UTC
Штиль
Температура 24°C
Влажность 83%
Давление 1012 hPa
Видимость 10 км и более
небольшая облачность на высоте 1500 фута

METAR: TTPP 230500Z 00000KT 9999 FEW015 24/21 Q1012 NOSIG

Время: 01:50 (05:50 UTC)

Прогноз

Эта сводка был подготовлена 1 час и 50 минут назад, в 04:00 UTC
Прогноз действительный с 23-го 06 UTC до 24-го 06 UTC
Ветер Узел от северный
Видимость 10 км и более
небольшая облачность на высоте 1600 фута
временами
С 23-го 06 UTC до 23-го 11 UTC
Видимость: 6000 м
Отдельные облака на высоте 1500 фута
ливневые дожди
изменения
С 23-го 11 UTC до 23-го 13 UTC
Ветер 14 Узел от восточный
Отдельные облака на высоте 2000 фута

TAF: TTPP 230400Z 2306/2406 00000KT 9999 FEW016 TEMPO 2306/2311 6000 SHRA SCT015 BECMG 2311/2313 10014KT SCT020

Метеонаблюдения и прогнозы для более 4000 аэропортов (сводки METAR и TAF).

Имеющиеся станции представлены на карте желтыми и красными точками.

Чтобы увидеть название станции, наведите на нее мышь.

Затем щелкните, чтобы увидеть метеонаблюдения и метеопрогнозы.

Управление картой: чтобы увеличить масштаб, щелкните зеленые кнопки с черным крестиком; чтобы уменьшить масштаб, щелкните зеленую кнопку с тире; для просмотра соседних карт щелкайте зеленые стрелки.


METAR-TAF: